createdAt,value
2018-02-07T00:02:22.835Z,37.20
2018-02-07T00:04:54.368Z,38.40
2018-02-07T00:07:26.509Z,38.13
2018-02-07T00:13:05.359Z,43.37
2018-02-07T00:15:43.584Z,49.60
2018-02-07T00:18:15.686Z,45.00
2018-02-07T00:26:41.211Z,44.03
2018-02-07T00:29:09.453Z,38.20
2018-02-07T00:31:36.912Z,36.27
2018-02-07T00:34:04.390Z,36.63
2018-02-07T00:36:31.845Z,39.50
2018-02-07T00:39:00.093Z,35.90
2018-02-07T00:41:27.570Z,39.40
2018-02-07T00:43:55.034Z,42.97
2018-02-07T00:46:22.497Z,41.87
2018-02-07T00:48:50.745Z,40.77
2018-02-07T00:51:18.430Z,43.10
2018-02-07T00:53:46.243Z,39.03
2018-02-07T00:56:13.708Z,41.63
2018-02-07T00:58:41.197Z,40.43
2018-02-07T01:01:08.665Z,38.80
2018-02-07T01:03:36.927Z,39.37
2018-02-07T01:06:04.396Z,37.07
2018-02-07T01:08:31.849Z,38.70
2018-02-07T01:10:59.330Z,41.30
2018-02-07T01:13:27.557Z,37.07
2018-02-07T01:15:55.029Z,38.50
2018-02-07T01:18:22.494Z,44.97
2018-02-07T01:20:49.949Z,39.67
2018-02-07T01:23:17.441Z,39.77
2018-02-07T01:25:45.663Z,39.60
2018-02-07T01:28:13.905Z,45.80
2018-02-07T01:30:41.421Z,40.07
2018-02-07T01:33:08.865Z,44.73
2018-02-07T01:35:36.334Z,40.13
2018-02-07T01:38:03.806Z,41.90
2018-02-07T01:40:31.275Z,45.50
2018-02-07T01:42:59.512Z,43.07
2018-02-07T01:45:26.977Z,43.70
2018-02-07T01:47:54.450Z,38.53
2018-02-07T01:50:22.691Z,43.03
2018-02-07T01:52:50.153Z,38.50
2018-02-07T01:55:17.633Z,38.93
2018-02-07T01:57:45.095Z,44.00
2018-02-07T02:00:12.565Z,40.03
2018-02-07T02:02:40.806Z,39.60
2018-02-07T02:05:08.265Z,39.67
2018-02-07T02:10:09.666Z,38.87
2018-02-07T02:12:37.899Z,42.27
2018-02-07T02:15:05.365Z,39.80
2018-02-07T02:17:32.845Z,42.57
2018-02-07T02:20:01.083Z,41.07
2018-02-07T02:22:28.545Z,36.90
2018-02-07T02:24:56.022Z,39.23
2018-02-07T02:27:23.489Z,43.73
2018-02-07T02:29:51.721Z,45.17
2018-02-07T02:32:19.194Z,41.23
2018-02-07T02:34:46.657Z,41.23
2018-02-07T02:37:14.137Z,43.70
2018-02-07T02:39:42.361Z,43.50
2018-02-07T02:42:10.722Z,44.87
2018-02-07T02:44:38.205Z,44.30
2018-02-07T02:47:05.674Z,44.77
2018-02-07T02:49:33.149Z,44.70
2018-02-07T02:52:01.397Z,43.47
2018-02-07T02:54:28.915Z,47.20
2018-02-07T02:56:56.346Z,42.37
2018-02-07T02:59:23.826Z,50.63
2018-02-07T03:01:51.285Z,49.63
2018-02-07T03:04:18.750Z,46.80
2018-02-07T03:06:46.227Z,45.03
2018-02-07T03:09:13.686Z,48.10
2018-02-07T03:11:41.155Z,53.00
2018-02-07T03:14:08.626Z,50.43
2018-02-07T03:16:36.085Z,50.43
2018-02-07T03:19:03.558Z,53.83
2018-02-07T03:21:31.030Z,55.60
2018-02-07T03:23:59.265Z,47.20
2018-02-07T03:26:26.733Z,56.30
2018-02-07T03:28:54.207Z,57.77
2018-02-07T03:31:21.668Z,63.67
2018-02-07T03:33:49.914Z,64.00
2018-02-07T03:36:17.387Z,59.73
2018-02-07T03:38:44.846Z,59.23
2018-02-07T03:41:12.360Z,60.30
2018-02-07T03:43:40.557Z,61.03
2018-02-07T03:46:08.021Z,64.13
2018-02-07T03:48:35.489Z,62.63
2018-02-07T03:51:02.969Z,63.97
2018-02-07T03:53:30.428Z,66.07
2018-02-07T03:55:57.902Z,65.50
2018-02-07T03:58:25.374Z,61.97
2018-02-07T04:00:52.838Z,64.20
2018-02-07T04:03:20.322Z,60.33
2018-02-07T04:05:47.799Z,59.67
2018-02-07T04:08:15.269Z,57.40
2018-02-07T04:10:43.506Z,56.10
2018-02-07T04:13:10.982Z,58.20
2018-02-07T04:15:38.453Z,62.07
2018-02-07T04:18:06.695Z,63.20
2018-02-07T04:20:34.158Z,66.43
2018-02-07T04:23:01.642Z,59.13
2018-02-07T04:25:29.108Z,61.27
2018-02-07T04:27:57.345Z,62.43
2018-02-07T04:30:24.812Z,65.40
2018-02-07T04:32:52.273Z,60.47
2018-02-07T04:35:19.753Z,59.00
2018-02-07T04:37:47.989Z,56.17
2018-02-07T04:40:15.450Z,55.10
2018-02-07T04:42:42.930Z,61.73
2018-02-07T04:45:10.395Z,61.63
2018-02-07T04:47:38.627Z,63.40
2018-02-07T04:50:06.095Z,59.37
2018-02-07T04:52:34.338Z,57.20
2018-02-07T04:55:01.799Z,54.07
2018-02-07T04:57:29.282Z,52.37
2018-02-07T04:59:56.759Z,48.93
2018-02-07T05:02:24.230Z,51.87
2018-02-07T05:04:51.694Z,52.33
2018-02-07T05:07:19.925Z,57.57
2018-02-07T05:09:47.390Z,52.50
2018-02-07T05:12:14.855Z,55.53
2018-02-07T05:14:42.334Z,56.23
2018-02-07T05:17:09.790Z,65.87
2018-02-07T05:19:38.017Z,65.13
2018-02-07T05:22:05.492Z,65.57
2018-02-07T05:24:32.949Z,62.47
2018-02-07T05:27:00.416Z,63.07
2018-02-07T05:29:27.894Z,62.73
2018-02-07T05:31:55.345Z,73.50
2018-02-07T05:34:22.825Z,86.20
2018-02-07T05:36:51.074Z,68.50
2018-02-07T05:39:18.543Z,66.70
2018-02-07T05:41:46.836Z,73.13
2018-02-07T05:44:14.262Z,74.30
2018-02-07T05:46:41.719Z,73.33
2018-02-07T05:49:09.199Z,70.90
2018-02-07T05:51:37.461Z,68.87
2018-02-07T05:54:04.931Z,66.87
2018-02-07T05:56:33.170Z,63.57
2018-02-07T05:59:00.650Z,68.03
2018-02-07T06:01:28.882Z,70.10
2018-02-07T06:03:56.369Z,69.37
2018-02-07T06:06:23.833Z,73.17
2018-02-07T06:08:51.305Z,68.57
2018-02-07T06:11:19.544Z,68.07
2018-02-07T06:13:47.774Z,71.23
2018-02-07T06:16:15.242Z,74.47
2018-02-07T06:18:42.711Z,75.93
2018-02-07T06:21:10.198Z,71.87
2018-02-07T06:23:37.658Z,68.53
2018-02-07T06:26:05.125Z,74.40
2018-02-07T06:28:32.614Z,84.77
2018-02-07T06:31:00.094Z,78.23
2018-02-07T06:33:27.575Z,89.00
2018-02-07T06:35:55.046Z,71.33
2018-02-07T06:38:22.541Z,73.67
2018-02-07T06:40:50.786Z,69.27
2018-02-07T06:43:18.261Z,65.37
2018-02-07T06:45:46.506Z,73.53
2018-02-07T06:48:13.986Z,88.03
2018-02-07T06:50:41.458Z,92.30
2018-02-07T06:53:09.696Z,70.57
2018-02-07T06:55:38.082Z,85.00
2018-02-07T06:58:05.559Z,82.23
2018-02-07T07:00:33.027Z,82.70
2018-02-07T07:03:01.278Z,77.47
2018-02-07T07:05:28.737Z,76.67
2018-02-07T07:07:56.206Z,74.07
2018-02-07T07:10:24.454Z,81.60
2018-02-07T07:12:51.923Z,75.30
2018-02-07T07:15:19.389Z,71.20
2018-02-07T07:17:46.853Z,77.13
2018-02-07T07:20:15.098Z,69.87
2018-02-07T07:22:42.569Z,75.23
2018-02-07T07:25:10.263Z,75.80
2018-02-07T07:27:38.489Z,71.40
2018-02-07T07:30:05.956Z,72.17
2018-02-07T07:32:33.417Z,71.30
2018-02-07T07:35:00.890Z,74.30
2018-02-07T07:37:29.140Z,67.93
2018-02-07T07:39:56.854Z,71.90
2018-02-07T07:42:24.606Z,78.90
2018-02-07T07:44:52.850Z,68.20
2018-02-07T07:47:20.324Z,74.10
2018-02-07T07:49:47.787Z,73.90
2018-02-07T07:52:15.260Z,73.60
2018-02-07T07:54:43.489Z,80.63
2018-02-07T07:57:10.961Z,80.03
2018-02-07T07:59:38.472Z,77.80
2018-02-07T08:02:05.961Z,71.77
2018-02-07T08:04:33.458Z,69.10
2018-02-07T08:07:01.698Z,67.70
2018-02-07T08:09:29.158Z,76.23
2018-02-07T08:11:56.636Z,72.63
2018-02-07T08:14:24.114Z,70.07
2018-02-07T08:16:52.349Z,61.43
2018-02-07T08:19:19.817Z,64.87
2018-02-07T08:21:47.282Z,68.80
2018-02-07T08:24:14.754Z,60.17
2018-02-07T08:26:42.214Z,64.30
2018-02-07T08:29:10.446Z,61.07
2018-02-07T08:31:37.909Z,64.80
2018-02-07T08:34:06.146Z,66.33
2018-02-07T08:36:33.624Z,67.37
2018-02-07T08:39:01.110Z,63.33
2018-02-07T08:41:28.583Z,65.87
2018-02-07T08:43:56.823Z,65.83
2018-02-07T08:46:24.280Z,68.33
2018-02-07T08:48:51.746Z,63.63
2018-02-07T08:51:19.226Z,65.07
2018-02-07T08:53:46.695Z,67.83
2018-02-07T08:56:14.933Z,65.30
2018-02-07T08:58:42.460Z,69.40
2018-02-07T09:01:09.886Z,67.93
2018-02-07T09:03:38.132Z,66.83
2018-02-07T09:06:05.626Z,67.53
2018-02-07T09:08:33.862Z,70.83
2018-02-07T09:11:01.339Z,69.40
2018-02-07T09:13:28.802Z,67.80
2018-02-07T09:15:57.021Z,72.87
2018-02-07T09:18:24.723Z,72.70
2018-02-07T09:20:52.358Z,76.77
2018-02-07T09:23:19.874Z,70.63
2018-02-07T09:25:47.342Z,72.93
2018-02-07T09:28:14.819Z,74.70
2018-02-07T09:30:42.309Z,78.47
2018-02-07T09:33:09.782Z,83.70
2018-02-07T09:35:38.060Z,78.90
2018-02-07T09:38:05.512Z,76.10
2018-02-07T09:40:32.973Z,74.07
2018-02-07T09:43:00.433Z,81.17
2018-02-07T09:45:28.677Z,79.87
2018-02-07T09:47:56.370Z,79.43
2018-02-07T09:50:23.825Z,72.10
2018-02-07T09:52:51.342Z,85.03
2018-02-07T09:55:18.820Z,76.77
2018-02-07T09:57:46.317Z,78.27
2018-02-07T10:00:14.512Z,74.33
2018-02-07T10:02:45.491Z,86.20
2018-02-07T10:05:12.984Z,85.33
2018-02-07T10:07:41.246Z,76.33
2018-02-07T10:10:08.830Z,81.27
2018-02-07T10:12:36.296Z,80.27
2018-02-07T10:15:03.832Z,82.60
2018-02-07T10:17:32.399Z,79.97
2018-02-07T10:19:59.881Z,83.57
2018-02-07T10:22:28.864Z,78.00
2018-02-07T10:24:57.103Z,90.43
2018-02-07T10:27:24.593Z,75.10
2018-02-07T10:29:58.707Z,74.03
2018-02-07T10:32:27.099Z,78.27
2018-02-07T10:34:54.578Z,75.67
2018-02-07T10:37:22.087Z,78.70
2018-02-07T10:39:49.554Z,79.27
2018-02-07T10:42:18.719Z,79.63
2018-02-07T10:44:46.202Z,76.50
2018-02-07T10:47:13.681Z,73.87
2018-02-07T10:58:19.744Z,78.87
2018-02-07T11:00:47.226Z,75.77
2018-02-07T11:03:14.698Z,77.53
2018-02-07T11:05:42.918Z,71.87
2018-02-07T11:08:10.389Z,74.77
2018-02-07T11:10:37.858Z,79.90
2018-02-07T11:13:05.322Z,71.27
2018-02-07T11:15:32.790Z,77.77
2018-02-07T11:18:00.262Z,76.90
2018-02-07T11:20:28.513Z,73.63
2018-02-07T11:22:55.986Z,81.60
2018-02-07T11:25:23.445Z,82.17
2018-02-07T11:27:50.906Z,81.40
2018-02-07T11:30:19.151Z,80.73
2018-02-07T11:32:46.629Z,77.70
2018-02-07T11:35:14.095Z,77.53
2018-02-07T11:37:42.339Z,91.83
2018-02-07T11:40:09.809Z,78.03
2018-02-07T11:42:37.265Z,81.83
2018-02-07T11:45:04.735Z,84.53
2018-02-07T11:47:33.163Z,83.77
2018-02-07T11:50:01.358Z,77.93
2018-02-07T11:52:28.822Z,88.67
2018-02-07T11:54:56.291Z,86.43
2018-02-07T11:57:23.749Z,85.00
2018-02-07T11:59:52.827Z,87.03
2018-02-07T12:02:20.298Z,84.53
2018-02-07T12:04:47.749Z,87.83
2018-02-07T12:07:15.231Z,91.47
2018-02-07T12:09:42.705Z,88.33
2018-02-07T12:12:10.925Z,87.33
2018-02-07T12:14:38.404Z,86.40
2018-02-07T12:17:05.885Z,91.00
2018-02-07T12:19:34.153Z,82.53
2018-02-07T12:22:02.455Z,89.27
2018-02-07T12:24:29.885Z,82.63
2018-02-07T12:26:57.370Z,88.43
2018-02-07T12:29:24.860Z,92.43
2018-02-07T12:31:52.331Z,88.47
2018-02-07T12:34:19.801Z,92.50
2018-02-07T12:36:47.296Z,83.63
2018-02-07T12:39:14.778Z,81.67
2018-02-07T12:41:42.236Z,88.47
2018-02-07T12:44:09.706Z,90.97
2018-02-07T12:46:37.166Z,95.53
2018-02-07T12:49:04.647Z,90.50
2018-02-07T12:51:32.121Z,90.77
2018-02-07T12:54:00.354Z,103.60
2018-02-07T12:56:27.829Z,107.03
2018-02-07T12:58:55.293Z,94.20
2018-02-07T13:01:22.781Z,105.57
2018-02-07T13:03:51.028Z,96.20
2018-02-07T13:06:18.748Z,102.67
2018-02-07T13:08:46.221Z,93.07
2018-02-07T13:11:13.698Z,101.37
2018-02-07T13:13:41.187Z,103.33
2018-02-07T13:16:09.424Z,102.67
2018-02-07T13:18:36.911Z,100.53
2018-02-07T13:21:05.188Z,95.17
2018-02-07T13:23:33.438Z,107.40
2018-02-07T13:26:00.913Z,92.23
2018-02-07T13:28:28.393Z,94.27
2018-02-07T13:30:56.617Z,99.77
2018-02-07T13:33:24.090Z,97.90
2018-02-07T13:35:51.563Z,78.03
2018-02-07T13:38:19.029Z,75.93
2018-02-07T13:40:47.274Z,73.97
2018-02-07T13:43:14.766Z,77.33
2018-02-07T13:45:43.067Z,78.57
2018-02-07T13:48:10.551Z,77.67
2018-02-07T13:50:38.024Z,80.57
2018-02-07T13:53:05.491Z,71.63
2018-02-07T13:55:32.966Z,74.63
2018-02-07T13:58:01.197Z,74.77
2018-02-07T14:00:28.661Z,74.47
2018-02-07T14:02:56.132Z,72.20
2018-02-07T14:05:23.606Z,74.90
2018-02-07T14:07:51.070Z,70.87
2018-02-07T14:10:19.313Z,73.83
2018-02-07T14:12:46.772Z,68.73
2018-02-07T14:15:14.255Z,68.73
2018-02-07T14:17:41.729Z,73.20
2018-02-07T14:20:10.237Z,74.40
2018-02-07T14:22:37.706Z,70.87
2018-02-07T14:25:05.178Z,70.03
2018-02-07T14:27:32.654Z,71.00
2018-02-07T14:30:00.118Z,66.57
2018-02-07T14:32:28.346Z,67.33
2018-02-07T14:34:55.819Z,69.63
2018-02-07T14:37:23.286Z,69.10
2018-02-07T14:39:50.766Z,61.53
2018-02-07T14:42:18.238Z,64.60
2018-02-07T14:44:46.477Z,67.57
2018-02-07T14:47:13.947Z,61.07
2018-02-07T14:49:41.410Z,67.70
2018-02-07T14:52:08.869Z,62.50
2018-02-07T14:54:36.337Z,66.33
2018-02-07T14:57:04.574Z,73.63
2018-02-07T14:59:32.037Z,61.20
2018-02-07T15:01:59.506Z,59.27
2018-02-07T15:04:26.977Z,60.17
2018-02-07T15:06:55.207Z,55.73
2018-02-07T15:09:22.686Z,65.73
2018-02-07T15:11:50.169Z,58.07
2018-02-07T15:14:18.395Z,67.63
2018-02-07T15:16:45.870Z,69.67
2018-02-07T15:19:13.365Z,63.17
2018-02-07T15:21:41.597Z,60.33
2018-02-07T15:24:09.057Z,67.00
2018-02-07T15:26:36.556Z,63.80
2018-02-07T15:29:04.798Z,64.70
2018-02-07T15:31:32.287Z,63.20
2018-02-07T15:33:59.766Z,61.83
2018-02-07T15:36:27.254Z,69.23
2018-02-07T15:38:55.004Z,64.37
2018-02-07T15:41:22.469Z,66.23
2018-02-07T15:43:49.933Z,57.60
2018-02-07T15:46:17.402Z,61.17
2018-02-07T15:48:44.869Z,60.00
2018-02-07T15:51:12.338Z,66.47
2018-02-07T15:53:39.880Z,60.33
2018-02-07T15:56:07.356Z,63.63
2018-02-07T15:58:34.826Z,65.27
2018-02-07T16:01:02.330Z,64.97
2018-02-07T16:03:30.583Z,58.63
2018-02-07T16:05:58.359Z,60.83
2018-02-07T16:08:26.034Z,60.97
2018-02-07T16:10:53.507Z,67.43
2018-02-07T16:13:20.979Z,65.53
2018-02-07T16:15:48.441Z,66.80
2018-02-07T16:18:15.926Z,67.93
2018-02-07T16:20:44.278Z,66.43
2018-02-07T16:23:11.762Z,67.93
2018-02-07T16:25:40.069Z,65.40
2018-02-07T16:28:07.554Z,64.80
2018-02-07T16:30:35.077Z,69.70
2018-02-07T16:33:02.555Z,68.67
2018-02-07T16:35:30.029Z,70.97
2018-02-07T16:37:57.510Z,74.20
2018-02-07T16:40:24.974Z,61.47
2018-02-07T16:42:53.218Z,64.40
2018-02-07T16:45:20.689Z,61.07
2018-02-07T16:47:48.161Z,69.93
2018-02-07T16:50:16.388Z,72.67
2018-02-07T16:52:43.856Z,71.60
2018-02-07T16:55:11.325Z,65.07
2018-02-07T16:57:38.806Z,75.67
2018-02-07T17:00:07.050Z,67.17
2018-02-07T17:02:34.513Z,68.77
2018-02-07T17:05:01.990Z,63.37
2018-02-07T17:07:29.463Z,68.20
2018-02-07T17:09:57.689Z,71.07
2018-02-07T17:12:25.170Z,70.23
2018-02-07T17:14:52.642Z,67.33
2018-02-07T17:17:20.886Z,67.83
2018-02-07T17:19:48.363Z,66.93
2018-02-07T17:22:15.838Z,55.67
2018-02-07T17:24:44.077Z,49.80
2018-02-07T17:27:11.562Z,49.03
2018-02-07T17:29:39.809Z,64.40
2018-02-07T17:32:07.277Z,64.37
2018-02-07T17:34:34.761Z,63.60
2018-02-07T17:37:03.013Z,63.67
2018-02-07T17:39:30.486Z,59.20
2018-02-07T17:41:58.744Z,64.63
2018-02-07T17:44:26.228Z,58.90
2018-02-07T17:46:54.479Z,64.23
2018-02-07T17:49:21.961Z,63.90
2018-02-07T17:51:50.387Z,60.23
2018-02-07T17:54:17.851Z,68.93
2018-02-07T17:56:45.326Z,65.57
2018-02-07T17:59:13.769Z,65.93
2018-02-07T18:01:41.241Z,66.40
2018-02-07T18:04:10.738Z,69.40
2018-02-07T18:06:38.203Z,72.20
2018-02-07T18:09:05.670Z,70.70
2018-02-07T18:11:33.150Z,73.87
2018-02-07T18:14:00.614Z,75.33
2018-02-07T18:16:28.863Z,76.70
2018-02-07T18:18:56.341Z,73.57
2018-02-07T18:21:24.611Z,72.43
2018-02-07T18:23:52.105Z,76.23
2018-02-07T18:26:20.337Z,74.50
2018-02-07T18:28:47.806Z,72.53
2018-02-07T18:31:15.302Z,78.67
2018-02-07T18:33:42.774Z,77.30
2018-02-07T18:36:10.248Z,81.97
2018-02-07T18:38:38.507Z,79.00
2018-02-07T18:41:05.972Z,77.43
2018-02-07T18:43:33.452Z,80.47
2018-02-07T18:46:00.981Z,77.07
2018-02-07T18:48:28.483Z,77.37
2018-02-07T18:50:56.922Z,80.50
2018-02-07T18:53:24.404Z,79.77
2018-02-07T18:55:51.877Z,82.33
2018-02-07T18:58:19.337Z,86.40
2018-02-07T19:00:46.827Z,79.60
2018-02-07T19:03:14.314Z,81.77
2018-02-07T19:05:41.790Z,75.90
2018-02-07T19:08:09.263Z,76.30
2018-02-07T19:10:36.745Z,74.47
2018-02-07T19:13:04.219Z,80.93
2018-02-07T19:15:31.698Z,76.33
2018-02-07T19:17:59.175Z,80.87
2018-02-07T19:20:26.644Z,78.77
2018-02-07T19:22:54.126Z,83.57
2018-02-07T19:25:22.361Z,81.20
2018-02-07T19:27:50.042Z,81.80
2018-02-07T19:30:17.517Z,86.00
2018-02-07T19:32:45.762Z,90.23
2018-02-07T19:35:13.226Z,88.90
2018-02-07T19:37:40.701Z,87.67
2018-02-07T19:40:08.174Z,84.47
2018-02-07T19:42:36.401Z,84.73
2018-02-07T19:45:03.869Z,86.30
2018-02-07T19:47:31.925Z,89.67
2018-02-07T19:49:59.389Z,90.43
2018-02-07T19:52:26.861Z,85.83
2018-02-07T19:54:54.333Z,83.27
2018-02-07T19:57:21.798Z,96.53
2018-02-07T19:59:50.037Z,91.03
2018-02-07T20:02:17.503Z,92.67
2018-02-07T20:04:44.989Z,85.53
2018-02-07T20:07:13.224Z,87.17
2018-02-07T20:09:40.693Z,81.03
2018-02-07T20:12:08.172Z,82.90
2018-02-07T20:14:35.878Z,83.80
2018-02-07T20:17:03.337Z,83.23
2018-02-07T20:19:30.800Z,88.00
2018-02-07T20:21:58.279Z,81.57
2018-02-07T20:24:25.759Z,83.93
2018-02-07T20:26:53.243Z,91.73
2018-02-07T20:29:21.473Z,89.30
2018-02-07T20:31:48.942Z,88.83
2018-02-07T20:34:16.410Z,80.77
2018-02-07T20:36:44.648Z,82.93
2018-02-07T20:39:12.099Z,84.00
2018-02-07T20:41:39.578Z,85.70
2018-02-07T20:44:07.054Z,85.23
2018-02-07T20:46:34.505Z,81.30
2018-02-07T20:49:01.979Z,81.87
2018-02-07T20:51:30.218Z,81.83
2018-02-07T20:53:57.681Z,87.33
2018-02-07T20:56:25.168Z,85.53
2018-02-07T20:58:53.401Z,92.00
2018-02-07T21:01:20.862Z,88.77
2018-02-07T21:03:48.339Z,87.23
2018-02-07T21:06:16.602Z,85.47
2018-02-07T21:08:44.074Z,88.87
2018-02-07T21:11:11.546Z,90.00
2018-02-07T21:13:39.782Z,85.30
2018-02-07T21:16:07.278Z,81.13
2018-02-07T21:18:35.514Z,81.10
2018-02-07T21:21:02.986Z,88.57
2018-02-07T21:23:30.458Z,89.03
2018-02-07T21:25:57.934Z,95.00
2018-02-07T21:28:26.456Z,89.23
2018-02-07T21:30:53.920Z,93.43
2018-02-07T21:33:21.413Z,88.90
2018-02-07T21:35:48.882Z,90.50
2018-02-07T21:38:17.109Z,90.63
2018-02-07T21:40:44.578Z,94.83
2018-02-07T21:43:12.049Z,91.60
2018-02-07T21:45:39.513Z,95.50
2018-02-07T21:48:06.993Z,93.10
2018-02-07T21:50:35.243Z,94.27
2018-02-07T21:53:02.732Z,91.83
2018-02-07T21:55:30.205Z,94.23
2018-02-07T21:57:57.679Z,93.37
2018-02-07T22:00:25.150Z,93.30
2018-02-07T22:02:52.617Z,87.00
2018-02-07T22:05:20.085Z,89.17
2018-02-07T22:07:47.554Z,91.93
2018-02-07T22:10:15.019Z,90.57
2018-02-07T22:12:43.270Z,88.23
2018-02-07T22:15:10.729Z,89.43
2018-02-07T22:17:38.239Z,85.97
2018-02-07T22:20:05.710Z,84.13
2018-02-07T22:22:33.172Z,87.53
2018-02-07T22:25:00.712Z,88.47
2018-02-07T22:27:28.141Z,86.87
2018-02-07T22:29:56.364Z,86.57
2018-02-07T22:32:23.829Z,83.97
2018-02-07T22:34:51.302Z,89.03
2018-02-07T22:37:18.766Z,85.07
2018-02-07T22:39:46.247Z,86.93
2018-02-07T22:42:14.474Z,88.63
2018-02-07T22:44:41.939Z,81.20
2018-02-07T22:47:09.415Z,83.00
2018-02-07T22:49:37.723Z,88.77
2018-02-07T22:52:05.210Z,80.77
2018-02-07T22:54:32.685Z,86.53
2018-02-07T22:57:00.217Z,84.07
2018-02-07T22:59:27.703Z,79.77
2018-02-07T23:01:55.169Z,82.80
2018-02-07T23:04:22.634Z,77.97
2018-02-07T23:06:51.023Z,83.87
2018-02-07T23:09:18.487Z,77.40
2018-02-07T23:11:46.722Z,87.90
2018-02-07T23:14:14.190Z,82.83
2018-02-07T23:16:41.652Z,79.57
2018-02-07T23:19:09.137Z,73.93
2018-02-07T23:21:37.375Z,72.43
2018-02-07T23:24:04.841Z,73.73
2018-02-07T23:26:32.314Z,72.37
2018-02-07T23:28:59.787Z,76.97
2018-02-07T23:31:28.022Z,69.70
2018-02-07T23:33:55.501Z,68.57
2018-02-07T23:36:22.973Z,71.67
2018-02-07T23:38:51.210Z,74.40
2018-02-07T23:41:18.690Z,72.43
2018-02-07T23:43:46.162Z,71.33
2018-02-07T23:46:14.396Z,71.60
2018-02-07T23:48:41.877Z,76.87
2018-02-07T23:51:09.345Z,72.90
2018-02-07T23:53:36.801Z,76.80
2018-02-07T23:56:04.265Z,71.07
2018-02-07T23:58:32.512Z,71.07
